createdAt,value
2023-03-22T00:01:30.662Z,713.00
2023-03-22T00:05:31.111Z,713.00
2023-03-22T00:56:26.665Z,691.00
2023-03-22T01:00:27.748Z,687.00
2023-03-22T01:04:27.936Z,686.00
2023-03-22T01:08:28.142Z,680.00
2023-03-22T01:12:28.389Z,684.00
2023-03-22T01:16:28.636Z,682.00
2023-03-22T03:08:38.360Z,656.00
2023-03-22T03:12:35.402Z,657.00
2023-03-22T03:16:36.213Z,648.00
2023-03-22T03:20:35.483Z,651.00
2023-03-22T03:24:35.458Z,651.00
2023-03-22T03:28:35.479Z,651.00
2023-03-22T03:32:36.185Z,647.00
2023-03-22T03:36:36.217Z,646.00
2023-03-22T03:40:36.177Z,641.00
2023-03-22T03:44:36.340Z,642.00
2023-03-22T04:52:42.891Z,627.00
2023-03-22T05:32:41.085Z,623.00
2023-03-22T05:36:41.107Z,624.00
2023-03-22T05:40:41.697Z,619.00
2023-03-22T05:44:41.479Z,620.00
2023-03-22T05:48:41.705Z,616.00
2023-03-22T05:52:41.934Z,619.00
2023-03-22T05:56:42.171Z,618.00
2023-03-22T08:08:45.532Z,1005.00
2023-03-22T08:28:49.193Z,1000.00
2023-03-22T08:32:46.486Z,1002.00
2023-03-22T08:36:45.983Z,1141.00
2023-03-22T09:32:45.982Z,1350.00
2023-03-22T09:36:45.498Z,1286.00
2023-03-22T09:40:45.499Z,1253.00
2023-03-22T09:44:45.532Z,1182.00
2023-03-22T09:48:48.332Z,1177.00
2023-03-22T09:52:45.506Z,1122.00
2023-03-22T09:56:45.548Z,1071.00
2023-03-22T10:04:45.505Z,1143.00
2023-03-22T10:08:46.255Z,1120.00
2023-03-22T10:12:45.509Z,1124.00
2023-03-22T10:16:45.172Z,1091.00
2023-03-22T10:20:45.514Z,1112.00
2023-03-22T10:24:45.537Z,1057.00
2023-03-22T10:28:45.545Z,1106.00
2023-03-22T10:32:57.146Z,1069.00
2023-03-22T10:36:46.056Z,1130.00
2023-03-22T10:40:46.024Z,1098.00
2023-03-22T10:44:46.050Z,1189.00
2023-03-22T10:48:45.557Z,1160.00
2023-03-22T10:52:45.533Z,1234.00
2023-03-22T10:56:46.322Z,1264.00
2023-03-22T11:00:46.105Z,1249.00
2023-03-22T11:04:45.562Z,1265.00
2023-03-22T11:08:45.535Z,1229.00
2023-03-22T11:12:45.541Z,1284.00
2023-03-22T11:21:03.820Z,1298.00
2023-03-22T11:25:04.802Z,1320.00
2023-03-22T11:29:04.767Z,1285.00
2023-03-22T11:33:04.306Z,910.00
2023-03-22T11:37:04.320Z,787.00
2023-03-22T11:41:03.784Z,811.00
2023-03-22T11:45:03.704Z,810.00
2023-03-22T11:49:03.877Z,806.00
2023-03-22T11:53:03.804Z,860.00
2023-03-22T11:57:03.837Z,874.00
2023-03-22T12:01:03.783Z,838.00
2023-03-22T12:05:03.810Z,861.00
2023-03-22T12:09:04.317Z,860.00
2023-03-22T12:13:03.793Z,853.00
2023-03-22T12:17:14.294Z,893.00
2023-03-22T12:21:03.319Z,868.00
2023-03-22T12:25:03.361Z,862.00
2023-03-22T12:29:03.001Z,845.00
2023-03-22T12:33:03.374Z,884.00
2023-03-22T12:37:03.359Z,983.00
2023-03-22T12:41:02.881Z,1031.00
2023-03-22T12:45:05.533Z,1071.00
2023-03-22T12:49:03.018Z,1031.00
2023-03-22T12:53:02.321Z,1080.00
2023-03-22T12:57:02.357Z,1107.00
2023-03-22T13:01:02.397Z,1110.00
2023-03-22T13:05:02.339Z,1137.00
2023-03-22T13:09:01.759Z,1211.00
2023-03-22T13:13:01.858Z,1250.00
2023-03-22T13:17:01.889Z,1272.00
2023-03-22T13:21:01.869Z,1287.00
2023-03-22T13:25:01.340Z,1303.00
2023-03-22T13:29:01.372Z,1313.00
2023-03-22T13:33:01.427Z,1308.00
2023-03-22T13:37:00.846Z,1320.00
2023-03-22T13:41:00.843Z,1326.00
2023-03-22T13:45:00.592Z,1339.00
2023-03-22T13:49:01.157Z,1351.00
2023-03-22T13:53:00.353Z,1331.00
2023-03-22T13:57:00.352Z,1291.00
2023-03-22T14:01:00.448Z,1331.00
2023-03-22T14:05:00.355Z,1318.00
2023-03-22T14:09:00.350Z,1320.00
2023-03-22T14:13:00.356Z,1317.00
2023-03-22T14:16:59.884Z,1309.00
2023-03-22T15:08:57.968Z,1006.00
2023-03-22T15:12:59.373Z,993.00
2023-03-22T15:16:59.376Z,1007.00
2023-03-22T17:09:00.412Z,958.00
2023-03-22T17:13:00.665Z,950.00
2023-03-22T17:17:00.745Z,946.00
2023-03-22T17:21:00.852Z,936.00
2023-03-22T17:25:00.996Z,938.00
2023-03-22T17:29:01.130Z,928.00
2023-03-22T17:33:01.840Z,926.00
2023-03-22T17:37:01.326Z,933.00
2023-03-22T17:41:02.731Z,925.00
2023-03-22T17:45:01.598Z,916.00
2023-03-22T17:49:01.690Z,920.00
2023-03-22T17:53:01.816Z,914.00
2023-03-22T17:57:26.179Z,910.00
2023-03-22T18:01:01.453Z,906.00
2023-03-22T18:05:01.289Z,892.00
2023-03-22T18:09:01.351Z,894.00
2023-03-22T18:13:01.120Z,894.00
2023-03-22T18:17:01.119Z,896.00
2023-03-22T18:21:01.156Z,897.00
2023-03-22T18:25:00.997Z,895.00
2023-03-22T18:29:01.168Z,893.00
2023-03-22T18:33:06.160Z,887.00
2023-03-22T18:37:01.342Z,878.00
2023-03-22T18:41:31.545Z,880.00
2023-03-22T18:45:01.632Z,878.00
2023-03-22T18:49:01.033Z,878.00
2023-03-22T18:57:00.871Z,868.00
2023-03-22T19:01:00.910Z,864.00
2023-03-22T19:05:00.771Z,860.00
2023-03-22T19:09:00.736Z,853.00
2023-03-22T19:13:00.618Z,853.00
2023-03-22T19:17:00.609Z,847.00
2023-03-22T19:21:10.066Z,848.00
2023-03-22T19:25:00.536Z,846.00
2023-03-22T19:29:00.485Z,842.00
2023-03-22T19:33:24.283Z,840.00
2023-03-22T19:37:00.368Z,841.00
2023-03-22T19:41:38.711Z,840.00
2023-03-22T19:45:00.217Z,834.00
2023-03-22T19:49:00.180Z,828.00
2023-03-22T19:53:14.328Z,833.00
2023-03-22T19:57:00.053Z,830.00
2023-03-22T20:00:59.987Z,829.00
2023-03-22T20:05:02.874Z,821.00
2023-03-22T20:08:59.881Z,822.00
2023-03-22T20:12:59.810Z,813.00
2023-03-22T20:17:05.560Z,809.00
2023-03-22T20:20:59.711Z,812.00
2023-03-22T20:24:59.690Z,803.00
2023-03-22T20:28:59.619Z,802.00
2023-03-22T20:32:59.561Z,804.00
2023-03-22T20:36:59.512Z,807.00
2023-03-22T20:40:59.484Z,806.00
2023-03-22T20:44:59.402Z,804.00
2023-03-22T20:48:59.548Z,803.00
2023-03-22T20:52:59.491Z,801.00
2023-03-22T20:56:59.462Z,797.00
